Time,TemperatureF,DewpointF,PressureIn,WindDirection,WindDirectionDegrees,WindSpeedMPH,WindSpeedGustMPH,Humidity,HourlyPrecipIn,Conditions,Clouds,dailyrainin,SolarRadiationWatts/m^2,SoftwareType,DateUTC
2013-07-04 00:12:00,95.0,56.0,-100.00,South,170,8.0,14.0,27,0.00,,,0.00,0.000000,,2013-07-04 07:12:00,
2013-07-04 00:21:00,95.0,56.0,-100.00,South,170,8.0,14.0,27,0.00,,,0.00,0.000000,,2013-07-04 07:21:00,
2013-07-04 00:34:00,95.0,56.0,-100.00,South,170,8.0,14.0,27,0.00,,,0.00,0.000000,,2013-07-04 07:34:00,
2013-07-04 00:43:00,95.0,56.0,-100.00,South,170,8.0,14.0,27,0.00,,,0.00,0.000000,,2013-07-04 07:43:00,
2013-07-04 01:11:00,93.0,53.0,-100.00,South,175,6.0,11.0,26,0.00,,,0.00,0.000000,,2013-07-04 08:11:00,
2013-07-04 01:21:00,93.0,53.0,-100.00,South,175,6.0,11.0,26,0.00,,,0.00,0.000000,,2013-07-04 08:21:00,
2013-07-04 01:33:00,93.0,53.0,-100.00,South,175,6.0,11.0,26,0.00,,,0.00,0.000000,,2013-07-04 08:33:00,
2013-07-04 01:42:00,93.0,53.0,-100.00,South,175,6.0,11.0,26,0.00,,,0.00,0.000000,,2013-07-04 08:42:00,
2013-07-04 02:22:00,91.0,54.0,-100.00,SSE,157,5.0,10.0,29,0.00,,,0.00,0.000000,,2013-07-04 09:22:00,
2013-07-04 02:32:00,91.0,54.0,-100.00,SSE,157,5.0,10.0,29,0.00,,,0.00,0.000000,,2013-07-04 09:32:00,
2013-07-04 02:42:00,91.0,54.0,-100.00,SSE,157,5.0,10.0,29,0.00,,,0.00,0.000000,,2013-07-04 09:42:00,
2013-07-04 03:11:00,89.0,54.0,-100.00,SSE,155,5.0,10.0,31,0.00,,,0.00,0.000000,,2013-07-04 10:11:00,
2013-07-04 03:22:00,89.0,54.0,-100.00,SSE,155,5.0,10.0,31,0.00,,,0.00,0.000000,,2013-07-04 10:22:00,
2013-07-04 03:33:00,89.0,54.0,-100.00,SSE,155,5.0,10.0,31,0.00,,,0.00,0.000000,,2013-07-04 10:33:00,
2013-07-04 03:42:00,89.0,54.0,-100.00,SSE,155,5.0,10.0,31,0.00,,,0.00,0.000000,,2013-07-04 10:42:00,
2013-07-04 04:11:00,88.0,57.0,-100.00,South,169,8.0,11.0,35,0.00,,,0.00,0.000000,,2013-07-04 11:11:00,
2013-07-04 04:22:00,88.0,57.0,-100.00,South,169,8.0,11.0,35,0.00,,,0.00,0.000000,,2013-07-04 11:22:00,
2013-07-04 04:33:00,88.0,57.0,-100.00,South,169,8.0,11.0,35,0.00,,,0.00,0.000000,,2013-07-04 11:33:00,
2013-07-04 04:43:00,88.0,57.0,-100.00,South,169,8.0,11.0,35,0.00,,,0.00,0.000000,,2013-07-04 11:43:00,
2013-07-04 05:11:00,87.0,58.0,-100.00,SSE,165,10.0,14.0,38,0.00,,,0.00,0.000000,,2013-07-04 12:11:00,
2013-07-04 05:22:00,87.0,58.0,-100.00,SSE,165,10.0,14.0,38,0.00,,,0.00,0.000000,,2013-07-04 12:22:00,
2013-07-04 05:33:00,87.0,58.0,-100.00,SSE,165,10.0,14.0,38,0.00,,,0.00,0.000000,,2013-07-04 12:33:00,
2013-07-04 05:43:00,87.0,58.0,-100.00,SSE,165,10.0,14.0,38,0.00,,,0.00,0.000000,,2013-07-04 12:43:00,
2013-07-04 06:22:00,86.0,61.0,-100.00,SSE,158,10.0,16.0,43,0.00,,,0.00,2.000000,,2013-07-04 13:22:00,
2013-07-04 06:33:00,86.0,61.0,-100.00,SSE,158,10.0,16.0,43,0.00,,,0.00,2.000000,,2013-07-04 13:33:00,
2013-07-04 06:43:00,86.0,61.0,-100.00,SSE,158,10.0,16.0,43,0.00,,,0.00,2.000000,,2013-07-04 13:43:00,
2013-07-04 07:22:00,88.0,64.0,-100.00,SSE,160,12.0,17.0,45,0.00,,,0.00,84.000000,,2013-07-04 14:22:00,
2013-07-04 07:33:00,88.0,64.0,-100.00,SSE,160,12.0,17.0,45,0.00,,,0.00,84.000000,,2013-07-04 14:33:00,
2013-07-04 07:43:00,88.0,64.0,-100.00,SSE,160,12.0,17.0,45,0.00,,,0.00,84.000000,,2013-07-04 14:43:00,
2013-07-04 08:23:00,90.0,66.0,-100.00,SSE,159,15.0,21.0,46,0.00,,,0.00,274.000000,,2013-07-04 15:23:00,
2013-07-04 08:33:00,90.0,66.0,-100.00,SSE,159,15.0,21.0,46,0.00,,,0.00,274.000000,,2013-07-04 15:33:00,
2013-07-04 08:43:00,90.0,66.0,-100.00,SSE,159,15.0,21.0,46,0.00,,,0.00,274.000000,,2013-07-04 15:43:00,
2013-07-04 09:11:00,93.0,66.0,-100.00,SSE,156,16.0,28.0,41,0.00,,,0.00,491.000000,,2013-07-04 16:11:00,
2013-07-04 09:22:00,93.0,66.0,-100.00,SSE,156,16.0,28.0,41,0.00,,,0.00,491.000000,,2013-07-04 16:22:00,
2013-07-04 09:33:00,93.0,66.0,-100.00,SSE,156,16.0,28.0,41,0.00,,,0.00,491.000000,,2013-07-04 16:33:00,
2013-07-04 09:42:00,93.0,66.0,-100.00,SSE,156,16.0,28.0,41,0.00,,,0.00,491.000000,,2013-07-04 16:42:00,
2013-07-04 10:11:00,95.0,66.0,-100.00,SSE,164,14.0,29.0,39,0.00,,,0.00,633.000000,,2013-07-04 17:11:00,
2013-07-04 10:22:00,95.0,66.0,-100.00,SSE,164,14.0,29.0,39,0.00,,,0.00,633.000000,,2013-07-04 17:22:00,
2013-07-04 10:33:00,95.0,66.0,-100.00,SSE,164,14.0,29.0,39,0.00,,,0.00,633.000000,,2013-07-04 17:33:00,
2013-07-04 10:43:00,95.0,66.0,-100.00,SSE,164,14.0,29.0,39,0.00,,,0.00,633.000000,,2013-07-04 17:43:00,
2013-07-04 11:22:00,98.0,65.0,-100.00,SSE,161,12.0,21.0,34,0.00,,,0.00,862.000000,,2013-07-04 18:22:00,
2013-07-04 11:33:00,98.0,65.0,-100.00,SSE,161,12.0,21.0,34,0.00,,,0.00,862.000000,,2013-07-04 18:33:00,
2013-07-04 11:43:00,98.0,65.0,-100.00,SSE,161,12.0,21.0,34,0.00,,,0.00,862.000000,,2013-07-04 18:43:00,
2013-07-04 12:11:00,101.0,65.0,-100.00,SSE,149,11.0,20.0,31,0.00,,,0.00,968.000000,,2013-07-04 19:11:00,
2013-07-04 12:22:00,101.0,65.0,-100.00,SSE,149,11.0,20.0,31,0.00,,,0.00,968.000000,,2013-07-04 19:22:00,
2013-07-04 12:33:00,101.0,65.0,-100.00,SSE,149,11.0,20.0,31,0.00,,,0.00,968.000000,,2013-07-04 19:33:00,
2013-07-04 12:43:00,101.0,65.0,-100.00,SSE,149,11.0,20.0,31,0.00,,,0.00,968.000000,,2013-07-04 19:43:00,
2013-07-04 13:11:00,103.0,62.0,-100.00,SSE,157,11.0,17.0,27,0.00,,,0.00,1029.000000,,2013-07-04 20:11:00,
2013-07-04 13:22:00,103.0,62.0,-100.00,SSE,157,11.0,17.0,27,0.00,,,0.00,1029.000000,,2013-07-04 20:22:00,
2013-07-04 13:33:00,103.0,62.0,-100.00,SSE,157,11.0,17.0,27,0.00,,,0.00,1029.000000,,2013-07-04 20:33:00,
2013-07-04 13:42:00,103.0,62.0,-100.00,SSE,157,11.0,17.0,27,0.00,,,0.00,1029.000000,,2013-07-04 20:42:00,
2013-07-04 14:11:00,106.0,64.0,-100.00,South,181,9.0,19.0,26,0.00,,,0.00,1022.000000,,2013-07-04 21:11:00,
2013-07-04 14:22:00,106.0,64.0,-100.00,South,181,9.0,19.0,26,0.00,,,0.00,1022.000000,,2013-07-04 21:22:00,
2013-07-04 14:32:00,106.0,64.0,-100.00,South,181,9.0,19.0,26,0.00,,,0.00,1022.000000,,2013-07-04 21:32:00,
2013-07-04 14:42:00,106.0,64.0,-100.00,South,181,9.0,19.0,26,0.00,,,0.00,1022.000000,,2013-07-04 21:42:00,
2013-07-04 15:11:00,108.0,58.0,-100.00,South,170,9.0,19.0,20,0.00,,,0.00,958.000000,,2013-07-04 22:11:00,
2013-07-04 15:22:00,108.0,58.0,-100.00,South,170,9.0,19.0,20,0.00,,,0.00,958.000000,,2013-07-04 22:22:00,
2013-07-04 15:33:00,108.0,58.0,-100.00,South,170,9.0,19.0,20,0.00,,,0.00,958.000000,,2013-07-04 22:33:00,
2013-07-04 15:43:00,108.0,58.0,-100.00,South,170,9.0,19.0,20,0.00,,,0.00,958.000000,,2013-07-04 22:43:00,
2013-07-04 16:11:00,108.0,62.0,-100.00,SE,145,10.0,18.0,23,0.00,,,0.00,825.000000,,2013-07-04 23:11:00,
2013-07-04 16:23:00,108.0,62.0,-100.00,SE,145,10.0,18.0,23,0.00,,,0.00,825.000000,,2013-07-04 23:23:00,
2013-07-04 16:33:00,108.0,62.0,-100.00,SE,145,10.0,18.0,23,0.00,,,0.00,825.000000,,2013-07-04 23:33:00,
2013-07-04 16:42:00,108.0,62.0,-100.00,SE,145,10.0,18.0,23,0.00,,,0.00,825.000000,,2013-07-04 23:42:00,
2013-07-04 17:11:00,107.0,60.0,-100.00,SSE,155,10.0,19.0,22,0.00,,,0.00,626.000000,,2013-07-05 00:11:00,
2013-07-04 17:21:00,107.0,60.0,-100.00,SSE,155,10.0,19.0,22,0.00,,,0.00,626.000000,,2013-07-05 00:21:00,
2013-07-04 17:32:00,107.0,60.0,-100.00,SSE,155,10.0,19.0,22,0.00,,,0.00,626.000000,,2013-07-05 00:32:00,
2013-07-04 17:43:00,107.0,60.0,-100.00,SSE,155,10.0,19.0,22,0.00,,,0.00,626.000000,,2013-07-05 00:43:00,
2013-07-04 18:11:00,104.0,64.0,-100.00,SSE,154,12.0,20.0,28,0.00,,,0.00,419.000000,,2013-07-05 01:11:00,
2013-07-04 18:22:00,104.0,64.0,-100.00,SSE,154,12.0,20.0,28,0.00,,,0.00,419.000000,,2013-07-05 01:22:00,
2013-07-04 18:32:00,104.0,64.0,-100.00,SSE,154,12.0,20.0,28,0.00,,,0.00,419.000000,,2013-07-05 01:32:00,
2013-07-04 18:42:00,104.0,64.0,-100.00,SSE,154,12.0,20.0,28,0.00,,,0.00,419.000000,,2013-07-05 01:42:00,
2013-07-04 19:11:00,101.0,65.0,-100.00,SSE,157,11.0,19.0,31,0.00,,,0.00,198.000000,,2013-07-05 02:11:00,
2013-07-04 19:21:00,101.0,65.0,-100.00,SSE,157,11.0,19.0,31,0.00,,,0.00,198.000000,,2013-07-05 02:21:00,
2013-07-04 19:32:00,101.0,65.0,-100.00,SSE,157,11.0,19.0,31,0.00,,,0.00,198.000000,,2013-07-05 02:32:00,
2013-07-04 19:42:00,101.0,65.0,-100.00,SSE,157,11.0,19.0,31,0.00,,,0.00,198.000000,,2013-07-05 02:42:00,
2013-07-04 20:11:00,97.0,63.0,-100.00,SSE,161,10.0,15.0,33,0.00,,,0.00,46.000000,,2013-07-05 03:11:00,
2013-07-04 20:21:00,97.0,63.0,-100.00,SSE,161,10.0,15.0,33,0.00,,,0.00,46.000000,,2013-07-05 03:21:00,
2013-07-04 20:32:00,97.0,63.0,-100.00,SSE,161,10.0,15.0,33,0.00,,,0.00,46.000000,,2013-07-05 03:32:00,
2013-07-04 20:42:00,97.0,63.0,-100.00,SSE,161,10.0,15.0,33,0.00,,,0.00,46.000000,,2013-07-05 03:42:00,
2013-07-04 21:11:00,94.0,61.0,-100.00,SSE,159,9.0,15.0,34,0.00,,,0.00,1.000000,,2013-07-05 04:11:00,
2013-07-04 21:21:00,94.0,61.0,-100.00,SSE,159,9.0,15.0,34,0.00,,,0.00,1.000000,,2013-07-05 04:21:00,
2013-07-04 21:33:00,94.0,61.0,-100.00,SSE,159,9.0,15.0,34,0.00,,,0.00,1.000000,,2013-07-05 04:33:00,
2013-07-04 21:43:00,94.0,61.0,-100.00,SSE,159,9.0,15.0,34,0.00,,,0.00,1.000000,,2013-07-05 04:43:00,
2013-07-04 22:12:00,92.0,60.0,-100.00,South,170,8.0,13.0,35,0.00,,,0.00,0.000000,,2013-07-05 05:12:00,
2013-07-04 22:21:00,92.0,60.0,-100.00,South,170,8.0,13.0,35,0.00,,,0.00,0.000000,,2013-07-05 05:21:00,
2013-07-04 22:33:00,92.0,60.0,-100.00,South,170,8.0,13.0,35,0.00,,,0.00,0.000000,,2013-07-05 05:33:00,
2013-07-04 22:43:00,92.0,60.0,-100.00,South,170,8.0,13.0,35,0.00,,,0.00,0.000000,,2013-07-05 05:43:00,
2013-07-04 23:13:00,90.0,62.0,-100.00,SSE,168,5.0,12.0,40,0.00,,,0.00,0.000000,,2013-07-05 06:13:00,
2013-07-04 23:23:00,90.0,62.0,-100.00,SSE,168,5.0,12.0,40,0.00,,,0.00,0.000000,,2013-07-05 06:23:00,
2013-07-04 23:34:00,90.0,62.0,-100.00,SSE,168,5.0,12.0,40,0.00,,,0.00,0.000000,,2013-07-05 06:34:00,
2013-07-04 23:43:00,90.0,62.0,-100.00,SSE,168,5.0,12.0,40,0.00,,,0.00,0.000000,,2013-07-05 06:43:00,